Time;durP1;ratioP1;P1;durP2;ratioP2;P2;SDS_P1;SDS_P2;PMS_P1;PMS_P2;Temp;Humidity;BMP_temperature;BMP_pressure;BME280_temperature;BME280_humidity;BME280_pressure;Samples;Min_cycle;Max_cycle;Signal;HPM_P1;HPM_P2
2023/09/09 00:00:39;;;;;;;17.48;10.63;;;17.40;81.30;;;;;;4881853;29;20052;-90
2023/09/09 00:03:06;;;;;;;15.35;10.57;;;17.30;81.70;;;;;;4897773;29;20080;-90
2023/09/09 00:05:34;;;;;;;17.57;11.17;;;17.40;81.60;;;;;;4882213;29;20048;-90
2023/09/09 00:08:01;;;;;;;15.75;10.90;;;17.40;81.60;;;;;;4897402;29;20053;-90
2023/09/09 00:10:29;;;;;;;15.75;10.68;;;17.40;81.70;;;;;;4882176;29;20119;-91
2023/09/09 00:12:57;;;;;;;19.98;10.93;;;17.40;81.50;;;;;;4897624;29;20048;-90
2023/09/09 00:15:25;;;;;;;19.48;10.95;;;17.40;81.50;;;;;;4897802;29;20418;-91
2023/09/09 00:17:52;;;;;;;16.33;10.10;;;17.40;81.50;;;;;;4882098;29;20053;-91
2023/09/09 00:20:35;;;;;;;19.00;10.88;;;17.30;81.70;;;;;;4897603;29;20505;-91
2023/09/09 00:23:07;;;;;;;17.35;11.43;;;17.30;81.90;;;;;;4897735;29;20417;-91
2023/09/09 00:25:38;;;;;;;16.20;10.73;;;17.30;82.00;;;;;;4882432;29;20210;-91
2023/09/09 00:28:07;;;;;;;19.17;10.85;;;17.20;82.10;;;;;;4897846;29;20052;-91
2023/09/09 00:30:34;;;;;;;17.77;10.80;;;17.10;82.20;;;;;;4897830;29;20049;-91
2023/09/09 00:33:01;;;;;;;15.95;10.63;;;17.10;82.20;;;;;;4882104;29;20503;-92
2023/09/09 00:35:32;;;;;;;17.38;10.98;;;17.10;82.10;;;;;;4897749;29;20053;-92
2023/09/09 00:37:59;;;;;;;16.98;11.68;;;17.10;82.10;;;;;;4897909;29;20060;-91
2023/09/09 00:40:26;;;;;;;17.92;11.48;;;17.20;82.10;;;;;;4882394;29;20053;-92
2023/09/09 00:42:53;;;;;;;18.00;11.00;;;17.20;82.00;;;;;;4901398;29;20051;-91
2023/09/09 00:45:20;;;;;;;17.00;10.90;;;17.20;82.00;;;;;;4901226;29;20064;-91
2023/09/09 00:47:47;;;;;;;16.02;10.55;;;17.20;81.80;;;;;;4901296;29;20080;-91
2023/09/09 00:50:15;;;;;;;17.63;11.45;;;17.10;81.90;;;;;;4901327;29;20072;-91
2023/09/09 00:52:42;;;;;;;18.60;11.10;;;17.10;82.00;;;;;;4885573;29;20411;-92
2023/09/09 00:55:11;;;;;;;18.57;11.57;;;17.10;82.00;;;;;;4886519;29;20103;-91
2023/09/09 00:57:38;;;;;;;16.95;11.15;;;17.10;82.10;;;;;;4901668;29;20529;-92
2023/09/09 01:00:09;;;;;;;19.98;11.50;;;17.10;82.00;;;;;;4902029;29;20147;-91
2023/09/09 01:02:41;;;;;;;19.35;11.80;;;17.10;81.90;;;;;;4904935;29;20101;-92
2023/09/09 01:05:10;;;;;;;17.98;11.95;;;17.10;82.00;;;;;;4904719;29;20053;-91
2023/09/09 01:07:48;;;;;;;18.10;11.23;;;17.10;82.10;;;;;;4888868;29;20529;-92
2023/09/09 01:10:17;;;;;;;18.42;10.75;;;17.00;82.20;;;;;;4889202;29;20057;-91
2023/09/09 01:12:44;;;;;;;16.63;10.95;;;17.00;82.20;;;;;;4887220;29;20048;-92
2023/09/09 01:15:12;;;;;;;17.08;10.73;;;17.00;82.20;;;;;;4904021;29;20527;-92
2023/09/09 01:17:41;;;;;;;18.27;10.98;;;17.00;82.10;;;;;;4904095;29;20143;-92
2023/09/09 01:20:15;;;;;;;16.30;10.90;;;17.00;82.20;;;;;;4903888;29;20143;-92
2023/09/09 01:22:44;;;;;;;17.27;11.30;;;17.00;82.30;;;;;;4886541;29;20511;-91
2023/09/09 01:25:12;;;;;;;18.67;11.13;;;17.00;82.30;;;;;;4900146;29;20053;-91
2023/09/09 01:27:40;;;;;;;16.58;11.15;;;17.00;82.30;;;;;;4900017;29;20060;-91
2023/09/09 01:30:08;;;;;;;18.00;11.23;;;17.00;82.20;;;;;;4900214;29;20059;-91
2023/09/09 01:32:35;;;;;;;17.57;10.97;;;17.00;82.30;;;;;;4899747;29;20503;-91
2023/09/09 01:35:04;;;;;;;19.45;11.70;;;17.00;82.30;;;;;;4900113;29;20147;-92
2023/09/09 01:37:32;;;;;;;18.38;11.95;;;17.00;82.10;;;;;;4884521;29;20058;-92
2023/09/09 01:40:05;;;;;;;18.73;12.13;;;17.00;82.20;;;;;;4900025;29;20056;-91
2023/09/09 01:42:32;;;;;;;16.63;11.48;;;17.00;82.40;;;;;;4884165;29;20092;-91
2023/09/09 01:44:59;;;;;;;15.73;10.90;;;17.00;82.40;;;;;;4884482;29;20565;-90
2023/09/09 01:47:26;;;;;;;18.70;11.20;;;16.90;82.50;;;;;;4899856;29;20044;-91
2023/09/09 01:49:53;;;;;;;18.10;11.63;;;16.90;82.50;;;;;;4899884;29;20048;-91
2023/09/09 01:52:20;;;;;;;16.52;10.98;;;16.90;82.60;;;;;;4883467;29;20104;-91
2023/09/09 01:54:48;;;;;;;18.27;11.75;;;17.00;82.60;;;;;;4900204;29;20079;-93
2023/09/09 01:57:19;;;;;;;18.27;11.40;;;16.80;82.70;;;;;;4899908;29;20122;-92
2023/09/09 01:59:46;;;;;;;18.67;11.20;;;16.80;82.70;;;;;;4899858;29;20045;-91
2023/09/09 02:02:16;;;;;;;17.23;11.52;;;16.80;82.80;;;;;;4884129;29;20047;-93
2023/09/09 02:04:43;;;;;;;16.88;10.90;;;16.80;82.80;;;;;;4899695;29;20499;-91
2023/09/09 02:07:11;;;;;;;17.92;11.50;;;16.80;82.50;;;;;;4899515;29;20045;-91
2023/09/09 02:09:39;;;;;;;16.37;11.13;;;16.80;82.60;;;;;;4899317;29;20044;-91
2023/09/09 02:12:06;;;;;;;18.17;11.07;;;16.80;82.50;;;;;;4899440;29;20060;-91
2023/09/09 02:14:34;;;;;;;17.17;10.43;;;16.80;82.50;;;;;;4884093;29;20048;-91
2023/09/09 02:17:02;;;;;;;18.70;11.98;;;16.80;82.30;;;;;;4884079;29;20045;-93
2023/09/09 02:19:29;;;;;;;19.10;10.50;;;16.90;82.10;;;;;;4883731;29;20075;-91
2023/09/09 02:21:57;;;;;;;18.10;10.93;;;16.90;82.00;;;;;;4868372;29;20048;-91
2023/09/09 02:24:24;;;;;;;17.08;10.10;;;17.00;81.90;;;;;;4880644;29;20045;-91
2023/09/09 02:26:51;;;;;;;17.10;11.80;;;17.00;81.70;;;;;;4880652;29;20049;-91
2023/09/09 02:29:18;;;;;;;18.60;10.80;;;17.00;81.90;;;;;;4870186;29;20044;-91
2023/09/09 02:31:45;;;;;;;15.00;10.73;;;17.00;82.00;;;;;;4883174;29;20059;-91
2023/09/09 02:34:12;;;;;;;15.03;10.47;;;16.90;82.00;;;;;;4898995;29;20052;-91
2023/09/09 02:36:44;;;;;;;16.02;10.27;;;16.90;82.00;;;;;;4883426;29;20112;-91
2023/09/09 02:39:11;;;;;;;18.23;10.52;;;17.00;82.00;;;;;;4883277;29;20152;-92
2023/09/09 02:41:39;;;;;;;17.65;10.75;;;17.00;81.90;;;;;;4898840;29;20066;-91
2023/09/09 02:44:06;;;;;;;16.05;9.98;;;16.90;81.90;;;;;;4898727;29;20049;-91
2023/09/09 02:46:33;;;;;;;15.87;10.60;;;16.90;82.00;;;;;;4898959;29;20089;-90
2023/09/09 02:49:01;;;;;;;15.50;9.90;;;16.90;82.00;;;;;;4868823;29;20053;-92
2023/09/09 02:51:28;;;;;;;16.20;10.57;;;16.90;81.90;;;;;;4901160;29;20088;-92
2023/09/09 02:53:55;;;;;;;15.63;10.35;;;17.00;81.80;;;;;;4901570;29;20084;-91
2023/09/09 02:56:22;;;;;;;17.75;11.43;;;16.90;81.90;;;;;;4886055;29;20052;-92
2023/09/09 02:58:49;;;;;;;18.90;10.40;;;16.90;82.00;;;;;;4884466;29;20519;-92
2023/09/09 03:01:16;;;;;;;18.40;11.25;;;16.90;82.10;;;;;;4884420;29;20384;-91
2023/09/09 03:03:43;;;;;;;16.38;10.52;;;16.80;82.00;;;;;;4898412;29;20041;-92
2023/09/09 03:06:11;;;;;;;15.57;10.50;;;16.80;82.10;;;;;;4898317;29;20048;-91
2023/09/09 03:08:38;;;;;;;17.52;10.50;;;16.80;82.20;;;;;;4898806;29;20041;-91
2023/09/09 03:11:05;;;;;;;15.17;10.17;;;16.80;82.20;;;;;;4898623;29;20053;-91
2023/09/09 03:13:34;;;;;;;17.83;10.18;;;16.80;82.10;;;;;;4898673;29;20104;-92
2023/09/09 03:16:04;;;;;;;15.23;10.43;;;16.80;82.00;;;;;;4899002;29;20052;-92
2023/09/09 03:18:31;;;;;;;14.73;9.98;;;16.80;82.00;;;;;;4899335;29;20079;-93
2023/09/09 03:20:58;;;;;;;16.48;10.30;;;16.80;81.80;;;;;;4884275;29;20127;-92
2023/09/09 03:23:25;;;;;;;15.73;10.37;;;16.80;81.90;;;;;;4899139;29;20053;-91
2023/09/09 03:25:53;;;;;;;17.63;9.95;;;16.80;81.90;;;;;;4899497;29;20044;-93
2023/09/09 03:28:20;;;;;;;16.70;9.88;;;16.70;82.00;;;;;;4884157;29;20045;-92
2023/09/09 03:30:58;;;;;;;14.80;9.95;;;16.60;82.10;;;;;;4882793;29;20127;-91
2023/09/09 03:33:31;;;;;;;15.07;10.07;;;16.60;82.20;;;;;;4882391;29;20041;-91
2023/09/09 03:35:58;;;;;;;15.97;9.90;;;16.60;82.20;;;;;;4898170;29;20495;-91
2023/09/09 03:38:25;;;;;;;15.65;10.10;;;16.60;82.30;;;;;;4898392;29;20044;-91
2023/09/09 03:40:52;;;;;;;13.82;9.43;;;16.50;82.40;;;;;;4897767;29;20072;-92
2023/09/09 03:43:20;;;;;;;14.00;9.65;;;16.50;82.40;;;;;;4897975;29;20045;-91
2023/09/09 03:45:54;;;;;;;16.20;10.30;;;16.50;82.60;;;;;;4897801;29;20045;-92
2023/09/09 03:48:22;;;;;;;18.30;9.50;;;16.50;82.60;;;;;;4867038;29;20040;-91
2023/09/09 03:50:49;;;;;;;15.98;10.20;;;16.50;82.70;;;;;;4894662;29;20456;-91
2023/09/09 03:53:16;;;;;;;15.68;10.02;;;16.50;82.60;;;;;;4878570;29;20083;-93
2023/09/09 03:55:44;;;;;;;16.05;10.30;;;16.50;82.60;;;;;;4867117;29;20122;-93
2023/09/09 03:58:11;;;;;;;14.55;10.25;;;16.50;82.40;;;;;;4882112;29;20052;-93
2023/09/09 04:00:38;;;;;;;16.77;10.00;;;16.50;82.20;;;;;;4882540;29;20135;-93
2023/09/09 04:03:05;;;;;;;17.02;9.82;;;16.50;82.30;;;;;;4898877;29;20139;-94
2023/09/09 04:05:33;;;;;;;13.95;9.93;;;16.50;82.40;;;;;;4898248;29;20097;-93
2023/09/09 04:08:03;;;;;;;14.32;9.90;;;16.50;82.30;;;;;;4882429;29;20072;-93
2023/09/09 04:10:31;;;;;;;14.90;9.23;;;16.50;82.30;;;;;;4882842;29;20058;-93
2023/09/09 04:12:58;;;;;;;16.43;10.13;;;16.50;82.40;;;;;;4898293;29;20488;-93
2023/09/09 04:15:25;;;;;;;17.35;9.77;;;16.50;82.20;;;;;;4898448;29;20147;-92
2023/09/09 04:17:52;;;;;;;14.57;9.57;;;16.50;82.10;;;;;;4901825;29;20519;-93
2023/09/09 04:20:19;;;;;;;14.25;9.10;;;16.50;82.00;;;;;;4886318;29;20048;-93
2023/09/09 04:22:46;;;;;;;13.48;9.05;;;16.50;82.00;;;;;;4886264;29;20109;-93
2023/09/09 04:25:13;;;;;;;15.53;9.90;;;16.60;82.10;;;;;;4886181;29;20491;-94
2023/09/09 04:27:41;;;;;;;14.93;9.90;;;16.50;82.10;;;;;;4871018;29;20044;-94
2023/09/09 04:30:09;;;;;;;14.85;8.98;;;16.60;82.00;;;;;;4901764;29;20045;-94
2023/09/09 04:32:36;;;;;;;13.13;8.88;;;16.50;81.90;;;;;;4901256;29;20091;-93
2023/09/09 04:35:03;;;;;;;14.35;8.48;;;16.50;81.90;;;;;;4901561;29;20049;-93
2023/09/09 04:37:32;;;;;;;14.87;9.50;;;16.50;82.10;;;;;;4901356;29;20152;-93
2023/09/09 04:40:00;;;;;;;13.27;8.02;;;16.40;82.30;;;;;;4901581;29;20392;-93
2023/09/09 04:42:27;;;;;;;14.23;9.23;;;16.50;82.30;;;;;;4870232;29;20040;-93
2023/09/09 04:44:54;;;;;;;13.43;8.98;;;16.50;82.30;;;;;;4885662;29;20044;-93
2023/09/09 04:47:21;;;;;;;14.38;9.20;;;16.40;82.40;;;;;;4885766;29;20045;-93
2023/09/09 04:49:48;;;;;;;15.03;9.80;;;16.40;82.40;;;;;;4885509;29;20072;-93
2023/09/09 04:52:15;;;;;;;13.50;8.82;;;16.50;82.30;;;;;;4901261;29;20045;-92
2023/09/09 04:54:43;;;;;;;12.93;8.85;;;16.50;82.20;;;;;;4885338;29;20519;-92
2023/09/09 04:57:11;;;;;;;12.93;8.77;;;16.60;82.10;;;;;;4870295;29;20493;-92
2023/09/09 04:59:38;;;;;;;16.25;8.90;;;16.60;82.00;;;;;;4900953;29;20057;-92
2023/09/09 05:02:05;;;;;;;13.20;8.60;;;16.50;82.20;;;;;;4885543;29;20571;-94
2023/09/09 05:04:32;;;;;;;13.23;8.95;;;16.50;82.30;;;;;;4901478;29;20045;-93
2023/09/09 05:07:00;;;;;;;13.77;8.95;;;16.60;82.20;;;;;;4870515;29;20068;-93
2023/09/09 05:09:28;;;;;;;14.18;8.35;;;16.60;82.10;;;;;;4901228;29;20177;-93
2023/09/09 05:11:55;;;;;;;16.05;8.95;;;16.60;82.10;;;;;;4885372;29;20066;-94
2023/09/09 05:14:22;;;;;;;14.53;8.17;;;16.60;82.00;;;;;;4901933;29;20044;-90
2023/09/09 05:16:49;;;;;;;13.90;8.65;;;16.60;81.90;;;;;;4884475;29;20044;-89
2023/09/09 05:19:16;;;;;;;12.95;8.82;;;16.70;81.80;;;;;;4885080;29;20495;-92
2023/09/09 05:21:44;;;;;;;14.07;8.40;;;16.80;81.70;;;;;;4885037;29;20044;-92
2023/09/09 05:24:11;;;;;;;12.40;8.35;;;16.80;81.60;;;;;;4884939;29;20135;-92
2023/09/09 05:26:38;;;;;;;11.63;7.87;;;16.80;81.50;;;;;;4884958;29;20051;-92
2023/09/09 05:29:05;;;;;;;15.38;8.55;;;16.80;81.40;;;;;;4883896;29;20098;-93
2023/09/09 05:31:32;;;;;;;13.82;8.30;;;16.80;81.30;;;;;;4866355;29;20069;-92
2023/09/09 05:34:02;;;;;;;13.45;8.13;;;16.90;81.20;;;;;;4881583;29;20056;-92
2023/09/09 05:36:30;;;;;;;15.13;8.25;;;16.90;80.90;;;;;;4881740;29;20048;-92
2023/09/09 05:38:59;;;;;;;13.93;8.27;;;16.90;80.90;;;;;;4881730;29;20049;-94
2023/09/09 05:41:29;;;;;;;12.27;7.80;;;16.90;81.20;;;;;;4881730;29;20045;-92
2023/09/09 05:43:57;;;;;;;13.20;8.40;;;17.00;80.90;;;;;;4890020;29;20045;-92
2023/09/09 05:46:24;;;;;;;16.48;8.40;;;16.90;80.90;;;;;;4866298;29;20049;-91
2023/09/09 05:48:52;;;;;;;13.50;8.43;;;17.00;81.10;;;;;;4865834;29;20152;-91
2023/09/09 05:51:19;;;;;;;12.27;7.50;;;17.00;81.10;;;;;;4866739;29;20049;-91
2023/09/09 05:53:47;;;;;;;12.23;8.07;;;17.10;81.00;;;;;;4866105;29;20507;-91
2023/09/09 05:56:14;;;;;;;13.75;7.82;;;17.20;80.80;;;;;;4880258;29;20056;-91
2023/09/09 05:58:42;;;;;;;12.48;7.38;;;17.30;80.70;;;;;;4881149;29;20057;-91
2023/09/09 06:01:09;;;;;;;12.07;7.43;;;17.40;80.40;;;;;;4884884;29;20139;-89
2023/09/09 06:03:38;;;;;;;14.70;7.67;;;17.50;80.20;;;;;;4881034;29;20045;-90
2023/09/09 06:06:06;;;;;;;15.00;8.05;;;17.50;79.80;;;;;;4880867;29;20049;-90
2023/09/09 06:08:33;;;;;;;14.90;7.38;;;17.60;79.70;;;;;;4881890;29;20049;-91
2023/09/09 06:11:01;;;;;;;12.10;6.72;;;17.90;79.10;;;;;;4865154;29;20049;-90
2023/09/09 06:13:29;;;;;;;13.00;7.07;;;18.00;78.60;;;;;;4886897;29;20611;-89
2023/09/09 06:15:56;;;;;;;11.03;7.37;;;18.10;78.40;;;;;;4880801;29;20055;-90
2023/09/09 06:18:23;;;;;;;15.50;7.82;;;18.10;78.20;;;;;;4865383;29;20565;-92
2023/09/09 06:20:52;;;;;;;13.57;8.10;;;18.30;78.20;;;;;;4880495;29;20080;-94
2023/09/09 06:23:20;;;;;;;12.52;7.72;;;18.50;77.70;;;;;;4880986;29;20508;-91
2023/09/09 06:25:50;;;;;;;12.15;7.47;;;18.60;77.50;;;;;;4880408;29;20534;-89
2023/09/09 06:28:17;;;;;;;11.70;7.37;;;18.60;76.90;;;;;;4853892;29;20076;-89
2023/09/09 06:30:47;;;;;;;12.63;7.63;;;18.70;76.90;;;;;;4883763;29;20053;-89
2023/09/09 06:33:14;;;;;;;11.48;7.03;;;18.80;76.80;;;;;;4883730;29;20131;-91
2023/09/09 06:35:49;;;;;;;13.45;7.20;;;18.90;76.60;;;;;;4883297;29;20514;-88
2023/09/09 06:38:19;;;;;;;12.82;7.57;;;19.00;76.70;;;;;;4880205;29;20507;-89
2023/09/09 06:40:47;;;;;;;11.77;7.57;;;19.10;75.90;;;;;;4879937;29;20140;-88
2023/09/09 06:43:17;;;;;;;12.63;7.22;;;19.10;76.20;;;;;;4878330;29;20444;-89
2023/09/09 06:45:44;;;;;;;11.38;6.72;;;19.10;76.50;;;;;;4883331;29;20132;-90
2023/09/09 06:48:16;;;;;;;12.25;7.57;;;19.30;76.00;;;;;;4898509;29;20137;-89
2023/09/09 06:50:47;;;;;;;13.95;7.28;;;19.30;75.90;;;;;;4867734;29;20143;-90
2023/09/09 06:53:14;;;;;;;11.57;7.13;;;19.50;76.20;;;;;;4897533;29;20061;-89
2023/09/09 06:55:45;;;;;;;13.65;7.18;;;19.60;76.30;;;;;;4898366;29;20083;-88
2023/09/09 06:58:12;;;;;;;13.48;7.55;;;19.70;76.10;;;;;;4882700;29;20135;-88
2023/09/09 07:00:40;;;;;;;12.30;7.28;;;19.80;74.80;;;;;;4882980;29;20049;-92
2023/09/09 07:03:08;;;;;;;15.48;7.43;;;19.90;75.00;;;;;;4867420;29;20048;-92
2023/09/09 07:05:35;;;;;;;11.70;6.83;;;20.00;74.50;;;;;;4892114;29;20407;-89
2023/09/09 07:08:05;;;;;;;10.90;6.78;;;20.10;74.70;;;;;;4897866;29;20048;-92
2023/09/09 07:10:32;;;;;;;13.10;7.40;;;20.10;74.50;;;;;;4883314;29;20498;-91
2023/09/09 07:12:59;;;;;;;12.55;7.22;;;20.20;74.40;;;;;;4882924;29;20112;-92
2023/09/09 07:15:26;;;;;;;11.98;7.43;;;20.30;74.00;;;;;;4882589;29;20058;-89
2023/09/09 07:17:54;;;;;;;12.87;7.23;;;20.40;74.10;;;;;;4898109;29;20075;-89
2023/09/09 07:20:22;;;;;;;12.73;7.80;;;20.50;73.60;;;;;;4897452;29;20518;-92
2023/09/09 07:22:49;;;;;;;16.45;8.45;;;20.60;75.00;;;;;;4882568;29;20044;-93
2023/09/09 07:25:16;;;;;;;13.95;9.23;;;20.70;74.00;;;;;;4882689;29;20136;-92
2023/09/09 07:27:43;;;;;;;12.60;7.50;;;20.90;74.50;;;;;;4898054;29;20571;-92
2023/09/09 07:30:10;;;;;;;13.37;7.73;;;21.00;73.10;;;;;;4867862;29;20045;-92
2023/09/09 07:32:37;;;;;;;11.27;7.50;;;21.10;72.60;;;;;;4881762;29;20093;-87
2023/09/09 07:35:05;;;;;;;12.43;7.45;;;21.20;72.70;;;;;;4866388;29;20076;-87
2023/09/09 07:37:32;;;;;;;12.55;7.10;;;21.40;72.90;;;;;;4881784;29;20052;-86
2023/09/09 07:39:59;;;;;;;12.45;7.18;;;21.60;73.50;;;;;;4897027;29;20139;-87
2023/09/09 07:42:27;;;;;;;10.97;7.07;;;21.60;72.30;;;;;;4881459;29;20051;-88
2023/09/09 07:44:54;;;;;;;14.07;7.30;;;21.70;72.20;;;;;;4898174;29;20140;-87
2023/09/09 07:47:21;;;;;;;14.20;7.95;;;21.80;72.50;;;;;;4881770;29;20045;-87
2023/09/09 07:49:49;;;;;;;11.85;6.97;;;22.00;71.90;;;;;;4881349;29;20549;-88
2023/09/09 07:52:16;;;;;;;12.77;6.85;;;22.10;71.30;;;;;;4881067;29;20096;-88
2023/09/09 07:54:43;;;;;;;11.17;6.40;;;22.10;71.50;;;;;;4895648;29;20106;-90
2023/09/09 07:57:10;;;;;;;11.93;7.10;;;22.20;70.10;;;;;;4881780;29;20502;-89
2023/09/09 07:59:39;;;;;;;13.18;6.97;;;22.30;69.70;;;;;;4892742;29;20143;-87
2023/09/09 08:02:06;;;;;;;11.10;6.18;;;22.50;68.90;;;;;;4897340;29;20037;-86
2023/09/09 08:04:33;;;;;;;11.02;6.22;;;22.50;69.00;;;;;;4882690;29;20063;-86
2023/09/09 08:07:00;;;;;;;10.87;6.20;;;22.60;67.60;;;;;;4881453;29;20534;-86
2023/09/09 08:09:27;;;;;;;11.85;6.68;;;22.60;67.50;;;;;;4881048;29;20127;-86
2023/09/09 08:11:54;;;;;;;12.65;7.30;;;22.70;67.60;;;;;;4865644;29;20059;-87
2023/09/09 08:14:22;;;;;;;13.32;7.18;;;22.80;68.00;;;;;;4896929;29;20055;-88
2023/09/09 08:16:50;;;;;;;13.88;8.20;;;22.90;66.70;;;;;;4896776;29;20056;-86
2023/09/09 08:19:17;;;;;;;16.27;7.73;;;23.00;67.00;;;;;;4880851;29;20056;-87
2023/09/09 08:21:44;;;;;;;12.05;7.18;;;23.00;66.10;;;;;;4881021;29;20049;-86
2023/09/09 08:24:11;;;;;;;14.15;7.55;;;23.10;66.20;;;;;;4881049;29;20079;-87
2023/09/09 08:26:38;;;;;;;15.90;8.02;;;23.20;66.00;;;;;;4896450;29;20503;-87
2023/09/09 08:29:05;;;;;;;15.75;7.88;;;23.20;66.80;;;;;;4896421;29;20049;-87
2023/09/09 08:31:35;;;;;;;13.30;7.33;;;23.20;63.80;;;;;;4896371;29;20056;-87
2023/09/09 08:34:02;;;;;;;12.90;6.95;;;23.30;62.60;;;;;;4896386;29;20461;-87
2023/09/09 08:36:29;;;;;;;13.82;7.55;;;23.40;62.40;;;;;;4880793;29;20097;-86
2023/09/09 08:38:57;;;;;;;17.52;8.18;;;23.50;62.60;;;;;;4896662;29;20131;-87
2023/09/09 08:41:48;;;;;;;14.73;6.80;;;23.60;61.70;;;;;;4896349;29;20048;-87
2023/09/09 08:44:36;;;;;;;14.97;7.57;;;23.60;60.80;;;;;;4881270;29;20052;-87
2023/09/09 08:47:04;;;;;;;13.80;7.30;;;23.60;61.50;;;;;;4881032;29;20053;-87
2023/09/09 08:49:35;;;;;;;15.18;7.32;;;23.60;61.70;;;;;;4880637;29;20048;-87
2023/09/09 08:52:10;;;;;;;15.20;7.15;;;23.70;62.30;;;;;;4881123;29;20073;-87
2023/09/09 08:54:38;;;;;;;13.43;7.03;;;23.80;60.80;;;;;;4880641;29;20049;-87
2023/09/09 08:57:05;;;;;;;12.57;6.77;;;23.80;59.70;;;;;;4880806;29;20135;-87
2023/09/09 08:59:33;;;;;;;11.75;6.50;;;23.90;59.50;;;;;;4896503;29;20452;-87
2023/09/09 09:02:02;;;;;;;11.63;6.25;;;23.90;58.70;;;;;;4880474;29;20045;-87
2023/09/09 09:04:32;;;;;;;11.00;6.63;;;24.00;58.80;;;;;;4884168;29;20132;-87
2023/09/09 09:07:01;;;;;;;12.55;7.18;;;24.00;60.00;;;;;;4896329;29;20053;-87
2023/09/09 09:09:29;;;;;;;11.33;6.33;;;24.10;60.60;;;;;;4865259;29;20045;-87
2023/09/09 09:12:00;;;;;;;11.23;6.95;;;24.10;61.30;;;;;;4865407;29;20460;-87
2023/09/09 09:14:27;;;;;;;12.20;7.05;;;24.20;60.80;;;;;;4897308;29;20552;-87
2023/09/09 09:16:54;;;;;;;10.65;6.72;;;24.20;59.30;;;;;;4865338;29;20057;-87
2023/09/09 09:19:30;;;;;;;12.57;6.68;;;24.30;60.50;;;;;;4896425;29;20049;-86
2023/09/09 09:21:59;;;;;;;12.57;6.40;;;24.30;59.90;;;;;;4895948;29;20053;-87
2023/09/09 09:24:27;;;;;;;11.82;6.68;;;24.40;59.30;;;;;;4865329;29;20049;-87
2023/09/09 09:26:55;;;;;;;12.80;6.60;;;24.50;59.00;;;;;;4880545;29;20049;-86
2023/09/09 09:29:22;;;;;;;12.10;7.07;;;24.50;58.60;;;;;;4896020;29;20049;-86
2023/09/09 09:31:51;;;;;;;13.73;7.10;;;24.50;58.00;;;;;;4895992;29;20052;-87
2023/09/09 09:34:20;;;;;;;10.17;6.57;;;24.60;59.50;;;;;;4865119;29;20063;-87
2023/09/09 09:36:47;;;;;;;10.13;6.40;;;24.60;59.60;;;;;;4880313;29;20411;-86
2023/09/09 09:39:15;;;;;;;11.75;6.85;;;24.70;60.70;;;;;;4864852;29;20049;-86
2023/09/09 09:41:45;;;;;;;13.35;6.93;;;24.80;59.40;;;;;;4864581;29;20060;-86
2023/09/09 09:44:20;;;;;;;10.68;6.82;;;24.80;58.30;;;;;;4864871;29;20067;-87
2023/09/09 09:47:08;;;;;;;12.77;6.63;;;24.90;58.40;;;;;;4880422;29;20144;-87
2023/09/09 09:49:37;;;;;;;11.18;7.00;;;25.00;58.90;;;;;;4864486;29;20049;-87
2023/09/09 09:52:06;;;;;;;13.20;7.22;;;25.10;60.20;;;;;;4864734;29;20543;-86
2023/09/09 09:54:35;;;;;;;11.35;7.07;;;25.00;59.00;;;;;;4895637;29;20053;-87
2023/09/09 09:57:05;;;;;;;11.95;6.70;;;25.00;58.80;;;;;;4864638;29;20529;-87
2023/09/09 09:59:33;;;;;;;12.47;7.33;;;25.00;60.30;;;;;;4883051;29;20052;-87
2023/09/09 10:02:03;;;;;;;13.57;7.88;;;25.00;59.60;;;;;;4898464;29;20076;-87
2023/09/09 10:04:38;;;;;;;11.15;6.72;;;25.00;58.90;;;;;;4867310;29;20414;-87
2023/09/09 10:07:13;;;;;;;11.27;6.65;;;25.10;59.30;;;;;;4867588;29;20052;-86
2023/09/09 10:10:04;;;;;;;12.20;7.32;;;25.10;59.50;;;;;;4882775;29;20048;-86
2023/09/09 10:12:37;;;;;;;11.03;7.03;;;25.20;58.20;;;;;;4882797;29;20391;-87
2023/09/09 10:15:16;;;;;;;12.70;7.45;;;25.20;57.90;;;;;;4897876;29;20108;-87
2023/09/09 10:17:45;;;;;;;12.00;7.40;;;25.30;58.40;;;;;;4882780;29;20056;-86
2023/09/09 10:20:12;;;;;;;13.57;7.60;;;25.30;58.30;;;;;;4882505;29;20055;-86
2023/09/09 10:22:41;;;;;;;12.85;7.28;;;25.30;58.60;;;;;;4897906;29;20048;-86
2023/09/09 10:25:10;;;;;;;11.77;7.70;;;25.40;58.40;;;;;;4898205;29;20048;-86
2023/09/09 10:27:41;;;;;;;12.10;7.32;;;25.50;57.90;;;;;;4883813;29;20467;-89
2023/09/09 10:30:10;;;;;;;15.93;7.70;;;25.50;58.40;;;;;;4867904;29;20061;-89
2023/09/09 10:32:38;;;;;;;13.07;8.05;;;25.60;60.20;;;;;;4883156;29;20060;-89
2023/09/09 10:35:06;;;;;;;12.38;7.18;;;25.60;59.40;;;;;;4867468;29;20052;-87
2023/09/09 10:37:36;;;;;;;11.17;7.03;;;25.70;57.00;;;;;;4883210;29;20089;-88
2023/09/09 10:40:04;;;;;;;13.13;8.18;;;25.80;59.30;;;;;;4898311;29;20564;-88
2023/09/09 10:42:34;;;;;;;12.52;7.80;;;25.80;58.80;;;;;;4882725;29;20053;-87
2023/09/09 10:45:21;;;;;;;12.77;7.40;;;25.90;60.50;;;;;;4866987;29;20052;-87
2023/09/09 10:47:53;;;;;;;10.55;6.60;;;25.80;57.30;;;;;;4898173;29;20395;-88
2023/09/09 10:50:21;;;;;;;11.03;6.20;;;25.90;57.20;;;;;;4882546;29;20091;-88
2023/09/09 10:53:11;;;;;;;12.15;6.70;;;26.00;56.50;;;;;;4882805;29;20072;-88
2023/09/09 10:55:38;;;;;;;10.52;6.35;;;26.10;57.20;;;;;;4890218;29;20049;-88
2023/09/09 10:58:09;;;;;;;11.30;7.47;;;26.10;56.80;;;;;;4894157;29;20052;-87
2023/09/09 11:00:48;;;;;;;12.85;7.05;;;26.20;57.50;;;;;;4875353;29;20498;-89
2023/09/09 11:03:20;;;;;;;10.40;6.50;;;26.10;57.50;;;;;;4866842;29;20120;-87
2023/09/09 11:06:04;;;;;;;11.65;5.78;;;26.10;56.90;;;;;;4882446;29;20119;-87
2023/09/09 11:08:37;;;;;;;11.10;6.25;;;26.10;53.70;;;;;;4882052;29;20143;-88
2023/09/09 11:11:10;;;;;;;9.23;5.95;;;26.10;54.00;;;;;;4882046;29;20059;-87
2023/09/09 11:13:57;;;;;;;10.77;5.93;;;26.10;53.30;;;;;;4882043;29;20194;-89
2023/09/09 11:16:33;;;;;;;10.83;6.70;;;26.20;53.80;;;;;;4897754;29;20511;-88
2023/09/09 11:19:08;;;;;;;14.50;7.70;;;26.40;56.00;;;;;;4898201;29;20538;-88
2023/09/09 11:21:39;;;;;;;11.13;7.00;;;26.40;56.60;;;;;;4897540;29;20537;-87
2023/09/09 11:24:07;;;;;;;12.05;7.25;;;26.50;58.80;;;;;;4897367;29;20049;-87
2023/09/09 11:26:39;;;;;;;13.70;7.13;;;26.60;58.30;;;;;;4898437;29;20044;-90
2023/09/09 11:29:07;;;;;;;13.60;7.20;;;26.60;57.30;;;;;;4898107;29;20051;-89
2023/09/09 11:31:47;;;;;;;10.35;6.45;;;26.60;56.00;;;;;;4881876;29;20061;-89
2023/09/09 11:34:15;;;;;;;11.63;7.25;;;26.60;56.70;;;;;;4892843;29;20049;-88
2023/09/09 11:36:43;;;;;;;13.32;8.00;;;26.70;56.20;;;;;;4863296;29;20049;-89
2023/09/09 11:39:11;;;;;;;11.77;7.30;;;26.80;58.10;;;;;;4863603;29;20152;-90
2023/09/09 11:41:38;;;;;;;13.50;6.83;;;26.80;56.80;;;;;;4863637;29;20053;-91
2023/09/09 11:44:09;;;;;;;10.32;6.63;;;26.90;55.50;;;;;;4879160;29;20447;-89
2023/09/09 11:46:42;;;;;;;11.45;6.85;;;26.90;54.90;;;;;;4876323;29;20095;-87
2023/09/09 11:49:11;;;;;;;12.20;7.25;;;26.90;54.10;;;;;;4874819;29;20143;-87
2023/09/09 11:51:38;;;;;;;12.07;7.50;;;26.90;54.50;;;;;;4866937;29;20049;-88
2023/09/09 11:54:09;;;;;;;11.77;6.93;;;26.90;54.50;;;;;;4896788;29;20578;-87
2023/09/09 11:56:36;;;;;;;10.85;6.63;;;26.80;54.20;;;;;;4897029;29;20049;-88
2023/09/09 11:59:08;;;;;;;10.43;6.63;;;26.80;53.80;;;;;;4866093;29;20056;-87
2023/09/09 12:01:43;;;;;;;10.02;6.20;;;26.90;53.70;;;;;;4896905;29;20072;-87
2023/09/09 12:04:14;;;;;;;11.95;6.43;;;27.00;55.00;;;;;;4881269;29;20144;-88
2023/09/09 12:06:45;;;;;;;9.53;6.30;;;27.00;54.50;;;;;;4881549;29;20056;-87
2023/09/09 12:09:13;;;;;;;10.82;6.22;;;27.00;54.10;;;;;;4881313;29;20081;-87
2023/09/09 12:11:42;;;;;;;12.27;6.63;;;27.00;53.50;;;;;;4881319;29;20547;-87
2023/09/09 12:14:14;;;;;;;11.90;6.40;;;26.90;53.10;;;;;;4896949;29;20147;-87
2023/09/09 12:16:46;;;;;;;11.13;6.22;;;27.00;53.10;;;;;;4897261;29;20056;-87
2023/09/09 12:19:13;;;;;;;9.93;6.10;;;27.00;53.90;;;;;;4881415;29;20099;-88
2023/09/09 12:21:46;;;;;;;10.30;6.05;;;27.00;54.30;;;;;;4881127;29;20056;-87
2023/09/09 12:24:13;;;;;;;11.90;6.10;;;27.10;53.10;;;;;;4865825;29;20102;-88
2023/09/09 12:26:53;;;;;;;11.45;6.00;;;27.10;51.70;;;;;;4865829;29;20041;-88
2023/09/09 12:29:20;;;;;;;13.38;6.90;;;27.10;53.60;;;;;;4865899;29;20510;-88
2023/09/09 12:31:53;;;;;;;11.77;6.83;;;27.20;55.50;;;;;;4896549;29;20113;-88
2023/09/09 12:34:21;;;;;;;11.18;6.38;;;27.40;56.40;;;;;;4865963;29;20048;-87
2023/09/09 12:36:49;;;;;;;12.15;6.65;;;27.60;54.50;;;;;;4897453;29;20531;-87
2023/09/09 12:39:23;;;;;;;9.90;6.07;;;27.60;53.20;;;;;;4884741;29;20044;-87
2023/09/09 12:41:58;;;;;;;11.20;6.05;;;27.60;52.80;;;;;;4884556;29;20044;-87